sensor_id;sensor_type;location;lat;lon;timestamp;P1;durP1;ratioP1;P2;durP2;ratioP2
43994;SDS011;51687;52.160;5.298;2024-01-06T00:01:30;11.20;;;10.40;;
43994;SDS011;51687;52.160;5.298;2024-01-06T00:03:57;10.48;;;9.77;;
43994;SDS011;51687;52.160;5.298;2024-01-06T00:06:24;10.23;;;9.52;;
43994;SDS011;51687;52.160;5.298;2024-01-06T00:08:51;10.93;;;10.23;;
43994;SDS011;51687;52.160;5.298;2024-01-06T00:11:20;9.68;;;9.00;;
43994;SDS011;51687;52.160;5.298;2024-01-06T00:13:48;9.38;;;8.70;;
43994;SDS011;51687;52.160;5.298;2024-01-06T00:16:18;9.27;;;8.57;;
43994;SDS011;51687;52.160;5.298;2024-01-06T00:18:46;10.43;;;9.60;;
43994;SDS011;51687;52.160;5.298;2024-01-06T00:21:13;9.85;;;9.15;;
43994;SDS011;51687;52.160;5.298;2024-01-06T00:23:40;9.52;;;8.93;;
43994;SDS011;51687;52.160;5.298;2024-01-06T00:26:07;9.50;;;8.90;;
43994;SDS011;51687;52.160;5.298;2024-01-06T00:28:35;8.13;;;7.60;;
43994;SDS011;51687;52.160;5.298;2024-01-06T00:31:05;7.60;;;7.15;;
43994;SDS011;51687;52.160;5.298;2024-01-06T00:33:32;8.30;;;7.80;;
43994;SDS011;51687;52.160;5.298;2024-01-06T00:35:59;8.13;;;7.63;;
43994;SDS011;51687;52.160;5.298;2024-01-06T00:38:26;8.73;;;8.13;;
43994;SDS011;51687;52.160;5.298;2024-01-06T00:40:53;9.63;;;8.95;;
43994;SDS011;51687;52.160;5.298;2024-01-06T00:43:20;8.82;;;8.23;;
43994;SDS011;51687;52.160;5.298;2024-01-06T00:45:46;9.68;;;8.85;;
43994;SDS011;51687;52.160;5.298;2024-01-06T00:48:13;9.65;;;9.00;;
43994;SDS011;51687;52.160;5.298;2024-01-06T00:50:41;9.73;;;9.02;;
43994;SDS011;51687;52.160;5.298;2024-01-06T00:53:07;10.77;;;9.98;;
43994;SDS011;51687;52.160;5.298;2024-01-06T00:55:34;10.23;;;9.52;;
43994;SDS011;51687;52.160;5.298;2024-01-06T00:58:01;9.57;;;8.98;;
43994;SDS011;51687;52.160;5.298;2024-01-06T01:00:27;8.55;;;7.85;;
43994;SDS011;51687;52.160;5.298;2024-01-06T01:02:54;9.35;;;8.75;;
43994;SDS011;51687;52.160;5.298;2024-01-06T01:05:21;9.70;;;9.07;;
43994;SDS011;51687;52.160;5.298;2024-01-06T01:07:48;9.63;;;8.95;;
43994;SDS011;51687;52.160;5.298;2024-01-06T01:10:14;8.63;;;7.93;;
43994;SDS011;51687;52.160;5.298;2024-01-06T01:12:41;8.73;;;7.97;;
43994;SDS011;51687;52.160;5.298;2024-01-06T01:15:08;8.55;;;7.85;;
43994;SDS011;51687;52.160;5.298;2024-01-06T01:17:35;7.68;;;7.07;;
43994;SDS011;51687;52.160;5.298;2024-01-06T01:20:03;7.67;;;7.07;;
43994;SDS011;51687;52.160;5.298;2024-01-06T01:22:31;7.80;;;7.30;;
43994;SDS011;51687;52.160;5.298;2024-01-06T01:24:57;7.72;;;7.22;;
43994;SDS011;51687;52.160;5.298;2024-01-06T01:27:24;8.63;;;8.10;;
43994;SDS011;51687;52.160;5.298;2024-01-06T01:29:51;8.85;;;8.15;;
43994;SDS011;51687;52.160;5.298;2024-01-06T01:32:19;10.10;;;9.33;;
43994;SDS011;51687;52.160;5.298;2024-01-06T01:34:46;10.45;;;9.65;;
43994;SDS011;51687;52.160;5.298;2024-01-06T01:37:13;10.82;;;9.82;;
43994;SDS011;51687;52.160;5.298;2024-01-06T01:39:40;8.52;;;7.88;;
43994;SDS011;51687;52.160;5.298;2024-01-06T01:42:07;10.48;;;9.70;;
43994;SDS011;51687;52.160;5.298;2024-01-06T01:44:34;8.95;;;8.40;;
43994;SDS011;51687;52.160;5.298;2024-01-06T01:47:04;9.48;;;8.88;;
43994;SDS011;51687;52.160;5.298;2024-01-06T01:49:31;9.93;;;8.95;;
43994;SDS011;51687;52.160;5.298;2024-01-06T01:51:59;9.73;;;8.75;;
43994;SDS011;51687;52.160;5.298;2024-01-06T01:54:26;9.70;;;9.00;;
43994;SDS011;51687;52.160;5.298;2024-01-06T01:56:54;8.52;;;8.02;;
43994;SDS011;51687;52.160;5.298;2024-01-06T01:59:21;8.65;;;7.70;;
43994;SDS011;51687;52.160;5.298;2024-01-06T02:01:48;8.95;;;8.35;;
43994;SDS011;51687;52.160;5.298;2024-01-06T02:04:16;8.90;;;8.23;;
43994;SDS011;51687;52.160;5.298;2024-01-06T02:06:43;10.20;;;9.38;;
43994;SDS011;51687;52.160;5.298;2024-01-06T02:09:10;7.72;;;7.13;;
43994;SDS011;51687;52.160;5.298;2024-01-06T02:11:37;9.40;;;8.38;;
43994;SDS011;51687;52.160;5.298;2024-01-06T02:14:04;8.18;;;7.68;;
43994;SDS011;51687;52.160;5.298;2024-01-06T02:16:32;8.20;;;7.60;;
43994;SDS011;51687;52.160;5.298;2024-01-06T02:19:05;7.50;;;6.90;;
43994;SDS011;51687;52.160;5.298;2024-01-06T02:21:34;7.47;;;6.50;;
43994;SDS011;51687;52.160;5.298;2024-01-06T02:24:02;6.72;;;6.13;;
43994;SDS011;51687;52.160;5.298;2024-01-06T02:26:30;7.30;;;6.70;;
43994;SDS011;51687;52.160;5.298;2024-01-06T02:28:57;6.50;;;6.00;;
43994;SDS011;51687;52.160;5.298;2024-01-06T02:31:24;6.80;;;6.40;;
43994;SDS011;51687;52.160;5.298;2024-01-06T02:33:51;6.47;;;6.07;;
43994;SDS011;51687;52.160;5.298;2024-01-06T02:36:18;7.00;;;6.50;;
43994;SDS011;51687;52.160;5.298;2024-01-06T02:38:45;6.00;;;5.60;;
43994;SDS011;51687;52.160;5.298;2024-01-06T02:41:13;7.15;;;6.65;;
43994;SDS011;51687;52.160;5.298;2024-01-06T02:43:41;5.97;;;5.57;;
43994;SDS011;51687;52.160;5.298;2024-01-06T02:46:08;7.43;;;6.95;;
43994;SDS011;51687;52.160;5.298;2024-01-06T02:48:35;6.97;;;6.47;;
43994;SDS011;51687;52.160;5.298;2024-01-06T02:51:02;7.22;;;6.80;;
43994;SDS011;51687;52.160;5.298;2024-01-06T02:53:30;7.50;;;6.90;;
43994;SDS011;51687;52.160;5.298;2024-01-06T02:55:57;7.30;;;6.80;;
43994;SDS011;51687;52.160;5.298;2024-01-06T02:58:25;8.75;;;7.95;;
43994;SDS011;51687;52.160;5.298;2024-01-06T03:00:52;8.25;;;7.57;;
43994;SDS011;51687;52.160;5.298;2024-01-06T03:03:19;7.85;;;7.25;;
43994;SDS011;51687;52.160;5.298;2024-01-06T03:05:46;8.05;;;7.45;;
43994;SDS011;51687;52.160;5.298;2024-01-06T03:08:15;7.95;;;7.45;;
43994;SDS011;51687;52.160;5.298;2024-01-06T03:10:43;8.27;;;7.78;;
43994;SDS011;51687;52.160;5.298;2024-01-06T03:13:10;7.60;;;7.00;;
43994;SDS011;51687;52.160;5.298;2024-01-06T03:15:36;8.30;;;7.63;;
43994;SDS011;51687;52.160;5.298;2024-01-06T03:18:04;8.35;;;7.78;;
43994;SDS011;51687;52.160;5.298;2024-01-06T03:20:32;8.25;;;7.68;;
43994;SDS011;51687;52.160;5.298;2024-01-06T03:22:59;7.80;;;7.20;;
43994;SDS011;51687;52.160;5.298;2024-01-06T03:25:26;6.88;;;6.22;;
43994;SDS011;51687;52.160;5.298;2024-01-06T03:27:53;7.20;;;6.70;;
43994;SDS011;51687;52.160;5.298;2024-01-06T03:30:20;7.22;;;6.65;;
43994;SDS011;51687;52.160;5.298;2024-01-06T03:32:48;7.00;;;6.50;;
43994;SDS011;51687;52.160;5.298;2024-01-06T03:35:15;6.70;;;6.20;;
43994;SDS011;51687;52.160;5.298;2024-01-06T03:37:43;7.32;;;6.70;;
43994;SDS011;51687;52.160;5.298;2024-01-06T03:40:10;6.70;;;6.20;;
43994;SDS011;51687;52.160;5.298;2024-01-06T03:42:37;7.25;;;6.75;;
43994;SDS011;51687;52.160;5.298;2024-01-06T03:45:04;6.75;;;6.30;;
43994;SDS011;51687;52.160;5.298;2024-01-06T03:47:32;9.50;;;6.53;;
43994;SDS011;51687;52.160;5.298;2024-01-06T03:49:59;7.43;;;6.78;;
43994;SDS011;51687;52.160;5.298;2024-01-06T03:52:27;8.15;;;7.55;;
43994;SDS011;51687;52.160;5.298;2024-01-06T03:54:54;7.60;;;7.00;;
43994;SDS011;51687;52.160;5.298;2024-01-06T03:57:22;8.23;;;7.63;;
43994;SDS011;51687;52.160;5.298;2024-01-06T03:59:49;8.98;;;8.38;;
43994;SDS011;51687;52.160;5.298;2024-01-06T04:02:16;8.95;;;8.35;;
43994;SDS011;51687;52.160;5.298;2024-01-06T04:04:43;8.95;;;8.25;;
43994;SDS011;51687;52.160;5.298;2024-01-06T04:07:10;8.00;;;7.40;;
43994;SDS011;51687;52.160;5.298;2024-01-06T04:09:38;8.82;;;8.23;;
43994;SDS011;51687;52.160;5.298;2024-01-06T04:12:08;8.15;;;7.47;;
43994;SDS011;51687;52.160;5.298;2024-01-06T04:14:35;7.68;;;7.18;;
43994;SDS011;51687;52.160;5.298;2024-01-06T04:17:03;8.55;;;7.95;;
43994;SDS011;51687;52.160;5.298;2024-01-06T04:19:30;8.55;;;7.95;;
43994;SDS011;51687;52.160;5.298;2024-01-06T04:21:58;8.75;;;8.02;;
43994;SDS011;51687;52.160;5.298;2024-01-06T04:24:25;8.88;;;8.27;;
43994;SDS011;51687;52.160;5.298;2024-01-06T04:26:53;8.18;;;7.57;;
43994;SDS011;51687;52.160;5.298;2024-01-06T04:29:20;8.25;;;7.65;;
43994;SDS011;51687;52.160;5.298;2024-01-06T04:31:47;8.07;;;7.47;;
43994;SDS011;51687;52.160;5.298;2024-01-06T04:34:14;8.02;;;7.43;;
43994;SDS011;51687;52.160;5.298;2024-01-06T04:36:42;8.73;;;8.02;;
43994;SDS011;51687;52.160;5.298;2024-01-06T04:39:10;9.15;;;8.35;;
43994;SDS011;51687;52.160;5.298;2024-01-06T04:41:39;9.27;;;8.57;;
43994;SDS011;51687;52.160;5.298;2024-01-06T04:44:07;9.63;;;8.93;;
43994;SDS011;51687;52.160;5.298;2024-01-06T04:46:34;11.32;;;10.30;;
43994;SDS011;51687;52.160;5.298;2024-01-06T04:49:01;12.88;;;11.88;;
43994;SDS011;51687;52.160;5.298;2024-01-06T04:51:29;14.25;;;13.02;;
43994;SDS011;51687;52.160;5.298;2024-01-06T04:53:56;13.75;;;12.50;;
43994;SDS011;51687;52.160;5.298;2024-01-06T04:56:23;12.73;;;11.82;;
43994;SDS011;51687;52.160;5.298;2024-01-06T04:58:50;13.00;;;12.00;;
43994;SDS011;51687;52.160;5.298;2024-01-06T05:01:18;13.55;;;12.40;;
43994;SDS011;51687;52.160;5.298;2024-01-06T05:03:46;12.75;;;11.75;;
43994;SDS011;51687;52.160;5.298;2024-01-06T05:06:13;13.10;;;12.18;;
43994;SDS011;51687;52.160;5.298;2024-01-06T05:08:42;13.55;;;12.40;;
43994;SDS011;51687;52.160;5.298;2024-01-06T05:11:11;13.98;;;12.68;;
43994;SDS011;51687;52.160;5.298;2024-01-06T05:13:38;13.43;;;12.23;;
43994;SDS011;51687;52.160;5.298;2024-01-06T05:16:05;13.00;;;11.90;;
43994;SDS011;51687;52.160;5.298;2024-01-06T05:18:33;13.27;;;12.07;;
43994;SDS011;51687;52.160;5.298;2024-01-06T05:21:00;11.95;;;10.85;;
43994;SDS011;51687;52.160;5.298;2024-01-06T05:23:29;11.55;;;10.73;;
43994;SDS011;51687;52.160;5.298;2024-01-06T05:25:56;11.48;;;10.48;;
43994;SDS011;51687;52.160;5.298;2024-01-06T05:28:23;12.25;;;11.10;;
43994;SDS011;51687;52.160;5.298;2024-01-06T05:30:50;14.50;;;10.93;;
43994;SDS011;51687;52.160;5.298;2024-01-06T05:33:18;12.27;;;11.27;;
43994;SDS011;51687;52.160;5.298;2024-01-06T05:35:45;13.10;;;11.85;;
43994;SDS011;51687;52.160;5.298;2024-01-06T05:38:13;13.70;;;12.32;;
43994;SDS011;51687;52.160;5.298;2024-01-06T05:40:40;12.25;;;11.35;;
43994;SDS011;51687;52.160;5.298;2024-01-06T05:43:07;13.68;;;12.52;;
43994;SDS011;51687;52.160;5.298;2024-01-06T05:45:34;12.30;;;11.38;;
43994;SDS011;51687;52.160;5.298;2024-01-06T05:50:30;12.60;;;11.20;;
43994;SDS011;51687;52.160;5.298;2024-01-06T05:52:57;12.30;;;11.25;;
43994;SDS011;51687;52.160;5.298;2024-01-06T05:55:24;13.18;;;12.07;;
43994;SDS011;51687;52.160;5.298;2024-01-06T05:57:51;13.93;;;12.82;;
43994;SDS011;51687;52.160;5.298;2024-01-06T06:00:19;12.88;;;11.75;;
43994;SDS011;51687;52.160;5.298;2024-01-06T06:02:48;13.20;;;12.10;;
43994;SDS011;51687;52.160;5.298;2024-01-06T06:05:15;14.60;;;12.63;;
43994;SDS011;51687;52.160;5.298;2024-01-06T06:07:42;14.05;;;12.95;;
43994;SDS011;51687;52.160;5.298;2024-01-06T06:10:10;13.80;;;12.73;;
43994;SDS011;51687;52.160;5.298;2024-01-06T06:12:38;14.95;;;13.00;;
43994;SDS011;51687;52.160;5.298;2024-01-06T06:15:05;14.35;;;12.98;;
43994;SDS011;51687;52.160;5.298;2024-01-06T06:17:33;12.20;;;11.20;;
43994;SDS011;51687;52.160;5.298;2024-01-06T06:20:00;13.05;;;10.95;;
43994;SDS011;51687;52.160;5.298;2024-01-06T06:22:28;13.85;;;12.52;;
43994;SDS011;51687;52.160;5.298;2024-01-06T06:24:58;14.93;;;13.65;;
43994;SDS011;51687;52.160;5.298;2024-01-06T06:27:26;15.68;;;14.00;;
43994;SDS011;51687;52.160;5.298;2024-01-06T06:29:54;15.98;;;14.45;;
43994;SDS011;51687;52.160;5.298;2024-01-06T06:32:22;15.93;;;14.45;;
43994;SDS011;51687;52.160;5.298;2024-01-06T06:34:51;15.13;;;13.60;;
43994;SDS011;51687;52.160;5.298;2024-01-06T06:37:19;16.20;;;14.50;;
43994;SDS011;51687;52.160;5.298;2024-01-06T06:39:46;18.70;;;14.52;;
43994;SDS011;51687;52.160;5.298;2024-01-06T06:42:13;14.93;;;13.52;;
43994;SDS011;51687;52.160;5.298;2024-01-06T06:44:40;12.77;;;11.57;;
43994;SDS011;51687;52.160;5.298;2024-01-06T06:47:08;12.93;;;11.73;;
43994;SDS011;51687;52.160;5.298;2024-01-06T06:49:36;12.40;;;11.30;;
43994;SDS011;51687;52.160;5.298;2024-01-06T06:52:03;12.82;;;11.73;;
43994;SDS011;51687;52.160;5.298;2024-01-06T06:54:33;13.80;;;12.60;;
43994;SDS011;51687;52.160;5.298;2024-01-06T06:57:00;11.60;;;10.55;;
43994;SDS011;51687;52.160;5.298;2024-01-06T06:59:27;11.38;;;10.25;;
43994;SDS011;51687;52.160;5.298;2024-01-06T07:01:54;11.68;;;9.95;;
43994;SDS011;51687;52.160;5.298;2024-01-06T07:04:22;10.43;;;9.52;;
43994;SDS011;51687;52.160;5.298;2024-01-06T07:06:49;9.82;;;8.82;;
43994;SDS011;51687;52.160;5.298;2024-01-06T07:09:17;8.82;;;8.02;;
43994;SDS011;51687;52.160;5.298;2024-01-06T07:11:48;9.55;;;8.52;;
43994;SDS011;51687;52.160;5.298;2024-01-06T07:14:16;9.40;;;8.40;;
43994;SDS011;51687;52.160;5.298;2024-01-06T07:16:43;10.73;;;9.40;;
43994;SDS011;51687;52.160;5.298;2024-01-06T07:19:10;9.32;;;8.32;;
43994;SDS011;51687;52.160;5.298;2024-01-06T07:21:37;8.07;;;7.38;;
43994;SDS011;51687;52.160;5.298;2024-01-06T07:24:04;8.57;;;7.97;;
43994;SDS011;51687;52.160;5.298;2024-01-06T07:26:31;8.85;;;8.15;;
43994;SDS011;51687;52.160;5.298;2024-01-06T07:28:58;8.25;;;7.55;;
43994;SDS011;51687;52.160;5.298;2024-01-06T07:31:25;8.35;;;7.60;;
43994;SDS011;51687;52.160;5.298;2024-01-06T07:33:52;7.93;;;7.13;;
43994;SDS011;51687;52.160;5.298;2024-01-06T07:36:19;7.25;;;6.57;;
43994;SDS011;51687;52.160;5.298;2024-01-06T07:38:47;7.68;;;6.85;;
43994;SDS011;51687;52.160;5.298;2024-01-06T07:41:15;7.38;;;5.82;;
43994;SDS011;51687;52.160;5.298;2024-01-06T07:43:41;7.72;;;6.95;;
43994;SDS011;51687;52.160;5.298;2024-01-06T07:46:08;7.28;;;6.63;;
43994;SDS011;51687;52.160;5.298;2024-01-06T07:48:35;7.45;;;6.45;;
43994;SDS011;51687;52.160;5.298;2024-01-06T07:51:02;7.15;;;6.55;;
43994;SDS011;51687;52.160;5.298;2024-01-06T07:53:29;7.20;;;6.60;;
43994;SDS011;51687;52.160;5.298;2024-01-06T07:55:56;7.47;;;6.88;;
43994;SDS011;51687;52.160;5.298;2024-01-06T07:58:23;7.72;;;6.97;;
43994;SDS011;51687;52.160;5.298;2024-01-06T08:00:50;7.53;;;6.82;;
43994;SDS011;51687;52.160;5.298;2024-01-06T08:03:16;7.30;;;6.72;;
43994;SDS011;51687;52.160;5.298;2024-01-06T08:05:44;7.63;;;6.95;;
43994;SDS011;51687;52.160;5.298;2024-01-06T08:08:10;8.00;;;7.28;;
43994;SDS011;51687;52.160;5.298;2024-01-06T08:10:39;7.20;;;6.60;;
43994;SDS011;51687;52.160;5.298;2024-01-06T08:13:06;7.38;;;6.75;;
43994;SDS011;51687;52.160;5.298;2024-01-06T08:15:33;9.70;;;7.88;;
43994;SDS011;51687;52.160;5.298;2024-01-06T08:18:00;9.30;;;8.40;;
43994;SDS011;51687;52.160;5.298;2024-01-06T08:20:27;9.07;;;8.00;;
43994;SDS011;51687;52.160;5.298;2024-01-06T08:22:55;8.93;;;8.23;;
43994;SDS011;51687;52.160;5.298;2024-01-06T08:25:23;9.98;;;9.18;;
43994;SDS011;51687;52.160;5.298;2024-01-06T08:27:50;10.43;;;8.77;;
43994;SDS011;51687;52.160;5.298;2024-01-06T08:30:17;9.18;;;8.38;;
43994;SDS011;51687;52.160;5.298;2024-01-06T08:32:44;9.88;;;9.18;;
43994;SDS011;51687;52.160;5.298;2024-01-06T08:35:11;10.48;;;9.60;;
43994;SDS011;51687;52.160;5.298;2024-01-06T08:37:39;9.82;;;9.02;;
43994;SDS011;51687;52.160;5.298;2024-01-06T08:40:07;10.85;;;9.45;;
43994;SDS011;51687;52.160;5.298;2024-01-06T08:42:34;10.43;;;9.40;;
43994;SDS011;51687;52.160;5.298;2024-01-06T08:45:01;10.68;;;9.77;;
43994;SDS011;51687;52.160;5.298;2024-01-06T08:47:28;10.10;;;9.20;;
43994;SDS011;51687;52.160;5.298;2024-01-06T08:49:56;10.70;;;9.70;;
43994;SDS011;51687;52.160;5.298;2024-01-06T08:52:23;11.15;;;9.98;;
43994;SDS011;51687;52.160;5.298;2024-01-06T08:54:50;10.50;;;9.60;;
43994;SDS011;51687;52.160;5.298;2024-01-06T08:57:18;11.75;;;10.55;;
43994;SDS011;51687;52.160;5.298;2024-01-06T08:59:45;10.88;;;9.98;;
43994;SDS011;51687;52.160;5.298;2024-01-06T09:02:13;10.73;;;9.68;;
43994;SDS011;51687;52.160;5.298;2024-01-06T09:04:39;12.27;;;9.15;;
43994;SDS011;51687;52.160;5.298;2024-01-06T09:07:06;10.23;;;9.27;;
43994;SDS011;51687;52.160;5.298;2024-01-06T09:09:33;12.13;;;9.57;;
43994;SDS011;51687;52.160;5.298;2024-01-06T09:11:59;13.25;;;9.32;;
43994;SDS011;51687;52.160;5.298;2024-01-06T09:14:26;11.90;;;10.75;;
43994;SDS011;51687;52.160;5.298;2024-01-06T09:16:53;11.80;;;10.73;;
43994;SDS011;51687;52.160;5.298;2024-01-06T09:19:20;12.93;;;10.23;;
43994;SDS011;51687;52.160;5.298;2024-01-06T09:21:48;10.25;;;9.25;;
43994;SDS011;51687;52.160;5.298;2024-01-06T09:24:15;10.35;;;9.38;;
43994;SDS011;51687;52.160;5.298;2024-01-06T09:26:42;10.20;;;9.00;;
43994;SDS011;51687;52.160;5.298;2024-01-06T09:29:10;11.10;;;10.10;;
43994;SDS011;51687;52.160;5.298;2024-01-06T09:31:38;10.45;;;9.43;;
43994;SDS011;51687;52.160;5.298;2024-01-06T09:34:08;9.02;;;8.32;;
43994;SDS011;51687;52.160;5.298;2024-01-06T09:36:36;8.55;;;7.72;;
43994;SDS011;51687;52.160;5.298;2024-01-06T09:39:03;9.27;;;8.38;;
43994;SDS011;51687;52.160;5.298;2024-01-06T09:41:33;7.78;;;6.90;;
43994;SDS011;51687;52.160;5.298;2024-01-06T09:44:00;7.40;;;6.70;;
43994;SDS011;51687;52.160;5.298;2024-01-06T09:46:27;8.52;;;6.65;;
43994;SDS011;51687;52.160;5.298;2024-01-06T09:48:57;7.22;;;6.63;;
43994;SDS011;51687;52.160;5.298;2024-01-06T09:51:25;7.95;;;7.35;;
43994;SDS011;51687;52.160;5.298;2024-01-06T09:54:00;8.98;;;8.23;;
43994;SDS011;51687;52.160;5.298;2024-01-06T09:56:29;9.85;;;8.90;;
43994;SDS011;51687;52.160;5.298;2024-01-06T09:58:56;10.95;;;8.63;;
43994;SDS011;51687;52.160;5.298;2024-01-06T10:01:23;9.85;;;8.95;;
43994;SDS011;51687;52.160;5.298;2024-01-06T10:03:50;11.95;;;9.43;;
43994;SDS011;51687;52.160;5.298;2024-01-06T10:06:17;10.38;;;9.43;;
43994;SDS011;51687;52.160;5.298;2024-01-06T10:08:50;10.82;;;9.73;;
43994;SDS011;51687;52.160;5.298;2024-01-06T10:11:18;10.35;;;9.45;;
43994;SDS011;51687;52.160;5.298;2024-01-06T10:13:45;9.63;;;8.68;;
43994;SDS011;51687;52.160;5.298;2024-01-06T10:16:14;9.25;;;8.48;;
43994;SDS011;51687;52.160;5.298;2024-01-06T10:18:40;9.05;;;8.35;;
43994;SDS011;51687;52.160;5.298;2024-01-06T10:21:07;10.30;;;9.50;;
43994;SDS011;51687;52.160;5.298;2024-01-06T10:23:35;10.65;;;9.40;;
43994;SDS011;51687;52.160;5.298;2024-01-06T10:26:04;9.68;;;8.82;;
43994;SDS011;51687;52.160;5.298;2024-01-06T10:28:31;10.00;;;9.10;;
43994;SDS011;51687;52.160;5.298;2024-01-06T10:30:59;11.00;;;10.00;;
43994;SDS011;51687;52.160;5.298;2024-01-06T10:33:26;11.13;;;10.13;;
43994;SDS011;51687;52.160;5.298;2024-01-06T10:35:53;9.70;;;8.73;;
43994;SDS011;51687;52.160;5.298;2024-01-06T10:38:23;8.90;;;8.07;;
43994;SDS011;51687;52.160;5.298;2024-01-06T10:40:56;8.18;;;7.47;;
43994;SDS011;51687;52.160;5.298;2024-01-06T10:43:25;9.18;;;8.27;;
43994;SDS011;51687;52.160;5.298;2024-01-06T10:45:56;11.18;;;9.50;;
43994;SDS011;51687;52.160;5.298;2024-01-06T10:48:25;13.15;;;10.05;;
43994;SDS011;51687;52.160;5.298;2024-01-06T10:50:53;10.10;;;9.20;;
43994;SDS011;51687;52.160;5.298;2024-01-06T10:53:21;10.20;;;8.25;;
43994;SDS011;51687;52.160;5.298;2024-01-06T10:55:51;7.72;;;7.03;;
43994;SDS011;51687;52.160;5.298;2024-01-06T10:58:21;9.38;;;8.40;;
43994;SDS011;51687;52.160;5.298;2024-01-06T11:00:48;8.27;;;7.47;;
43994;SDS011;51687;52.160;5.298;2024-01-06T11:03:16;7.68;;;6.97;;
43994;SDS011;51687;52.160;5.298;2024-01-06T11:05:44;7.10;;;6.50;;
43994;SDS011;51687;52.160;5.298;2024-01-06T11:08:11;7.60;;;6.88;;
43994;SDS011;51687;52.160;5.298;2024-01-06T11:10:39;7.72;;;7.13;;
43994;SDS011;51687;52.160;5.298;2024-01-06T11:13:16;7.28;;;6.25;;
43994;SDS011;51687;52.160;5.298;2024-01-06T11:15:48;7.82;;;7.03;;
43994;SDS011;51687;52.160;5.298;2024-01-06T11:18:36;6.72;;;6.13;;
43994;SDS011;51687;52.160;5.298;2024-01-06T11:21:14;9.05;;;6.78;;
43994;SDS011;51687;52.160;5.298;2024-01-06T11:24:07;7.45;;;6.80;;
43994;SDS011;51687;52.160;5.298;2024-01-06T11:26:38;6.95;;;6.25;;
43994;SDS011;51687;52.160;5.298;2024-01-06T11:29:06;7.38;;;6.50;;
43994;SDS011;51687;52.160;5.298;2024-01-06T11:31:34;6.75;;;6.07;;
43994;SDS011;51687;52.160;5.298;2024-01-06T11:34:12;7.22;;;6.57;;
43994;SDS011;51687;52.160;5.298;2024-01-06T11:36:43;6.65;;;6.05;;
43994;SDS011;51687;52.160;5.298;2024-01-06T11:42:14;6.43;;;5.78;;
43994;SDS011;51687;52.160;5.298;2024-01-06T11:44:43;6.32;;;5.72;;
43994;SDS011;51687;52.160;5.298;2024-01-06T11:47:11;7.32;;;6.15;;
43994;SDS011;51687;52.160;5.298;2024-01-06T11:49:39;6.57;;;6.00;;
43994;SDS011;51687;52.160;5.298;2024-01-06T11:52:10;6.65;;;6.05;;
43994;SDS011;51687;52.160;5.298;2024-01-06T11:54:38;5.75;;;5.25;;
43994;SDS011;51687;52.160;5.298;2024-01-06T11:57:06;5.97;;;5.43;;
43994;SDS011;51687;52.160;5.298;2024-01-06T11:59:33;5.63;;;5.10;;
43994;SDS011;51687;52.160;5.298;2024-01-06T12:02:00;6.82;;;4.47;;
43994;SDS011;51687;52.160;5.298;2024-01-06T12:04:26;5.53;;;4.60;;
43994;SDS011;51687;52.160;5.298;2024-01-06T12:07:04;5.78;;;4.72;;
43994;SDS011;51687;52.160;5.298;2024-01-06T12:09:32;4.63;;;4.22;;
43994;SDS011;51687;52.160;5.298;2024-01-06T12:12:03;5.28;;;4.78;;
43994;SDS011;51687;52.160;5.298;2024-01-06T12:14:31;4.85;;;4.25;;
43994;SDS011;51687;52.160;5.298;2024-01-06T12:16:59;4.88;;;4.45;;
43994;SDS011;51687;52.160;5.298;2024-01-06T12:19:30;5.65;;;4.95;;
43994;SDS011;51687;52.160;5.298;2024-01-06T12:22:01;5.28;;;4.78;;
43994;SDS011;51687;52.160;5.298;2024-01-06T12:24:29;6.03;;;5.30;;
43994;SDS011;51687;52.160;5.298;2024-01-06T12:26:56;6.68;;;5.15;;
43994;SDS011;51687;52.160;5.298;2024-01-06T12:29:27;5.38;;;4.88;;
43994;SDS011;51687;52.160;5.298;2024-01-06T12:32:01;6.05;;;5.55;;
43994;SDS011;51687;52.160;5.298;2024-01-06T12:34:29;5.93;;;5.32;;
43994;SDS011;51687;52.160;5.298;2024-01-06T12:39:26;5.45;;;4.95;;
43994;SDS011;51687;52.160;5.298;2024-01-06T12:41:54;6.63;;;5.97;;
43994;SDS011;51687;52.160;5.298;2024-01-06T12:44:21;5.88;;;5.38;;
43994;SDS011;51687;52.160;5.298;2024-01-06T12:46:49;6.32;;;5.72;;
43994;SDS011;51687;52.160;5.298;2024-01-06T12:49:16;6.47;;;5.88;;
43994;SDS011;51687;52.160;5.298;2024-01-06T12:51:43;5.95;;;5.45;;
43994;SDS011;51687;52.160;5.298;2024-01-06T12:54:10;6.32;;;5.72;;
43994;SDS011;51687;52.160;5.298;2024-01-06T12:56:37;7.25;;;6.47;;
43994;SDS011;51687;52.160;5.298;2024-01-06T12:59:04;7.93;;;6.95;;
43994;SDS011;51687;52.160;5.298;2024-01-06T13:01:32;8.35;;;7.30;;
43994;SDS011;51687;52.160;5.298;2024-01-06T13:03:59;7.00;;;6.40;;
43994;SDS011;51687;52.160;5.298;2024-01-06T13:06:27;6.53;;;5.90;;
43994;SDS011;51687;52.160;5.298;2024-01-06T13:08:54;6.43;;;5.68;;
43994;SDS011;51687;52.160;5.298;2024-01-06T13:11:20;6.28;;;5.70;;
43994;SDS011;51687;52.160;5.298;2024-01-06T13:13:47;7.45;;;6.50;;
43994;SDS011;51687;52.160;5.298;2024-01-06T13:16:14;6.88;;;5.90;;
43994;SDS011;51687;52.160;5.298;2024-01-06T13:18:41;6.50;;;5.90;;
43994;SDS011;51687;52.160;5.298;2024-01-06T13:21:08;6.40;;;5.85;;
43994;SDS011;51687;52.160;5.298;2024-01-06T13:23:35;6.63;;;6.03;;
43994;SDS011;51687;52.160;5.298;2024-01-06T13:26:02;6.90;;;6.30;;
43994;SDS011;51687;52.160;5.298;2024-01-06T13:28:28;6.20;;;5.60;;
43994;SDS011;51687;52.160;5.298;2024-01-06T13:30:55;7.03;;;6.35;;
43994;SDS011;51687;52.160;5.298;2024-01-06T13:33:22;7.15;;;6.22;;
43994;SDS011;51687;52.160;5.298;2024-01-06T13:35:49;6.93;;;6.32;;
43994;SDS011;51687;52.160;5.298;2024-01-06T13:38:16;6.43;;;5.82;;
43994;SDS011;51687;52.160;5.298;2024-01-06T13:40:43;7.13;;;6.53;;
43994;SDS011;51687;52.160;5.298;2024-01-06T13:43:10;7.72;;;6.90;;
43994;SDS011;51687;52.160;5.298;2024-01-06T13:45:42;6.95;;;6.25;;
43994;SDS011;51687;52.160;5.298;2024-01-06T13:48:11;8.07;;;6.85;;
43994;SDS011;51687;52.160;5.298;2024-01-06T13:50:38;8.35;;;7.65;;
43994;SDS011;51687;52.160;5.298;2024-01-06T13:53:05;6.80;;;6.20;;
43994;SDS011;51687;52.160;5.298;2024-01-06T13:55:32;8.02;;;7.28;;
43994;SDS011;51687;52.160;5.298;2024-01-06T13:58:02;7.35;;;6.75;;
43994;SDS011;51687;52.160;5.298;2024-01-06T14:00:29;7.50;;;6.80;;
43994;SDS011;51687;52.160;5.298;2024-01-06T14:02:56;7.25;;;6.53;;
43994;SDS011;51687;52.160;5.298;2024-01-06T14:05:23;7.03;;;6.43;;
43994;SDS011;51687;52.160;5.298;2024-01-06T14:07:50;7.40;;;6.80;;
43994;SDS011;51687;52.160;5.298;2024-01-06T14:10:17;6.88;;;6.18;;
43994;SDS011;51687;52.160;5.298;2024-01-06T14:12:44;11.45;;;7.18;;
43994;SDS011;51687;52.160;5.298;2024-01-06T14:15:11;7.68;;;6.60;;
43994;SDS011;51687;52.160;5.298;2024-01-06T14:17:38;7.78;;;6.05;;
43994;SDS011;51687;52.160;5.298;2024-01-06T14:20:07;6.82;;;6.18;;
43994;SDS011;51687;52.160;5.298;2024-01-06T14:22:35;7.10;;;6.40;;
43994;SDS011;51687;52.160;5.298;2024-01-06T14:25:03;7.25;;;6.68;;
43994;SDS011;51687;52.160;5.298;2024-01-06T14:27:32;7.20;;;6.60;;
43994;SDS011;51687;52.160;5.298;2024-01-06T14:29:59;8.88;;;7.78;;
43994;SDS011;51687;52.160;5.298;2024-01-06T14:32:26;7.05;;;6.38;;
43994;SDS011;51687;52.160;5.298;2024-01-06T14:34:53;7.75;;;7.03;;
43994;SDS011;51687;52.160;5.298;2024-01-06T14:37:20;7.07;;;6.38;;
43994;SDS011;51687;52.160;5.298;2024-01-06T14:39:47;7.82;;;7.03;;
43994;SDS011;51687;52.160;5.298;2024-01-06T14:42:14;6.03;;;5.43;;
43994;SDS011;51687;52.160;5.298;2024-01-06T14:44:42;7.13;;;6.20;;
43994;SDS011;51687;52.160;5.298;2024-01-06T14:47:09;6.80;;;6.20;;
43994;SDS011;51687;52.160;5.298;2024-01-06T14:49:36;6.05;;;5.53;;
43994;SDS011;51687;52.160;5.298;2024-01-06T14:52:04;6.35;;;5.82;;